sensor_id;sensor_type;location;lat;lon;timestamp;temperature;humidity
65046;DHT22;54657;52.022;5.534;2023-03-19T00:01:47;12.60;82.30
65046;DHT22;54657;52.022;5.534;2023-03-19T00:04:13;12.60;82.70
65046;DHT22;54657;52.022;5.534;2023-03-19T00:06:38;12.60;81.90
65046;DHT22;54657;52.022;5.534;2023-03-19T00:09:04;12.70;82.10
65046;DHT22;54657;52.022;5.534;2023-03-19T00:11:29;12.60;82.30
65046;DHT22;54657;52.022;5.534;2023-03-19T00:13:55;12.70;81.50
65046;DHT22;54657;52.022;5.534;2023-03-19T00:16:21;12.70;82.00
65046;DHT22;54657;52.022;5.534;2023-03-19T00:18:46;12.70;82.20
65046;DHT22;54657;52.022;5.534;2023-03-19T00:21:12;12.60;81.60
65046;DHT22;54657;52.022;5.534;2023-03-19T00:23:38;12.60;82.20
65046;DHT22;54657;52.022;5.534;2023-03-19T00:26:04;12.60;82.60
65046;DHT22;54657;52.022;5.534;2023-03-19T00:28:31;12.60;82.40
65046;DHT22;54657;52.022;5.534;2023-03-19T00:30:57;12.60;82.20
65046;DHT22;54657;52.022;5.534;2023-03-19T00:33:22;12.60;82.70
65046;DHT22;54657;52.022;5.534;2023-03-19T00:35:48;12.60;82.60
65046;DHT22;54657;52.022;5.534;2023-03-19T00:38:14;12.60;82.40
65046;DHT22;54657;52.022;5.534;2023-03-19T00:40:39;12.60;82.00
65046;DHT22;54657;52.022;5.534;2023-03-19T00:43:05;12.60;82.40
65046;DHT22;54657;52.022;5.534;2023-03-19T00:45:31;12.60;82.70
65046;DHT22;54657;52.022;5.534;2023-03-19T00:47:57;12.60;82.30
65046;DHT22;54657;52.022;5.534;2023-03-19T00:50:23;12.60;83.20
65046;DHT22;54657;52.022;5.534;2023-03-19T00:52:49;12.50;83.70
65046;DHT22;54657;52.022;5.534;2023-03-19T00:55:16;12.50;83.90
65046;DHT22;54657;52.022;5.534;2023-03-19T00:57:42;12.50;83.00
65046;DHT22;54657;52.022;5.534;2023-03-19T01:00:08;12.50;83.00
65046;DHT22;54657;52.022;5.534;2023-03-19T01:02:35;12.60;82.90
65046;DHT22;54657;52.022;5.534;2023-03-19T01:05:00;12.50;82.90
65046;DHT22;54657;52.022;5.534;2023-03-19T01:07:26;12.50;83.50
65046;DHT22;54657;52.022;5.534;2023-03-19T01:09:51;12.50;82.80
65046;DHT22;54657;52.022;5.534;2023-03-19T01:12:17;12.60;82.80
65046;DHT22;54657;52.022;5.534;2023-03-19T01:14:43;12.50;82.20
65046;DHT22;54657;52.022;5.534;2023-03-19T01:17:09;12.50;82.80
65046;DHT22;54657;52.022;5.534;2023-03-19T01:19:35;12.50;82.80
65046;DHT22;54657;52.022;5.534;2023-03-19T01:22:00;12.50;83.20
65046;DHT22;54657;52.022;5.534;2023-03-19T01:24:30;12.40;83.10
65046;DHT22;54657;52.022;5.534;2023-03-19T01:26:56;12.40;83.20
65046;DHT22;54657;52.022;5.534;2023-03-19T01:29:21;12.40;83.00
65046;DHT22;54657;52.022;5.534;2023-03-19T01:31:47;12.40;82.90
65046;DHT22;54657;52.022;5.534;2023-03-19T01:34:12;12.40;82.70
65046;DHT22;54657;52.022;5.534;2023-03-19T01:36:38;12.40;82.80
65046;DHT22;54657;52.022;5.534;2023-03-19T01:39:04;12.50;82.90
65046;DHT22;54657;52.022;5.534;2023-03-19T01:41:29;12.40;82.10
65046;DHT22;54657;52.022;5.534;2023-03-19T01:43:55;12.50;81.90
65046;DHT22;54657;52.022;5.534;2023-03-19T01:46:30;12.60;81.70
65046;DHT22;54657;52.022;5.534;2023-03-19T01:49:03;12.60;82.40
65046;DHT22;54657;52.022;5.534;2023-03-19T01:51:42;12.60;83.10
65046;DHT22;54657;52.022;5.534;2023-03-19T01:54:13;12.60;83.10
65046;DHT22;54657;52.022;5.534;2023-03-19T01:56:41;12.50;82.50
65046;DHT22;54657;52.022;5.534;2023-03-19T02:01:46;12.60;82.50
65046;DHT22;54657;52.022;5.534;2023-03-19T02:04:14;12.60;82.80
65046;DHT22;54657;52.022;5.534;2023-03-19T02:06:40;12.50;82.30
65046;DHT22;54657;52.022;5.534;2023-03-19T02:09:07;12.60;82.20
65046;DHT22;54657;52.022;5.534;2023-03-19T02:11:34;12.60;82.10
65046;DHT22;54657;52.022;5.534;2023-03-19T02:14:00;12.60;82.40
65046;DHT22;54657;52.022;5.534;2023-03-19T02:16:26;12.50;82.90
65046;DHT22;54657;52.022;5.534;2023-03-19T02:18:52;12.50;83.20
65046;DHT22;54657;52.022;5.534;2023-03-19T02:21:19;12.50;82.90
65046;DHT22;54657;52.022;5.534;2023-03-19T02:24:02;12.40;83.60
65046;DHT22;54657;52.022;5.534;2023-03-19T02:26:31;12.40;85.90
65046;DHT22;54657;52.022;5.534;2023-03-19T02:28:56;12.30;84.30
65046;DHT22;54657;52.022;5.534;2023-03-19T02:31:22;12.30;84.10
65046;DHT22;54657;52.022;5.534;2023-03-19T02:36:46;12.40;85.80
65046;DHT22;54657;52.022;5.534;2023-03-19T02:39:37;12.40;85.40
65046;DHT22;54657;52.022;5.534;2023-03-19T02:42:04;12.40;86.10
65046;DHT22;54657;52.022;5.534;2023-03-19T02:44:31;12.40;83.50
65046;DHT22;54657;52.022;5.534;2023-03-19T02:46:56;12.40;83.30
65046;DHT22;54657;52.022;5.534;2023-03-19T02:49:22;12.40;83.20
65046;DHT22;54657;52.022;5.534;2023-03-19T02:51:48;12.40;83.30
65046;DHT22;54657;52.022;5.534;2023-03-19T02:54:13;12.50;83.30
65046;DHT22;54657;52.022;5.534;2023-03-19T02:56:39;12.50;83.30
65046;DHT22;54657;52.022;5.534;2023-03-19T02:59:04;12.50;83.10
65046;DHT22;54657;52.022;5.534;2023-03-19T03:01:30;12.50;83.20
65046;DHT22;54657;52.022;5.534;2023-03-19T03:03:56;12.50;83.60
65046;DHT22;54657;52.022;5.534;2023-03-19T03:06:22;12.50;83.80
65046;DHT22;54657;52.022;5.534;2023-03-19T03:08:47;12.50;84.00
65046;DHT22;54657;52.022;5.534;2023-03-19T03:11:13;12.40;84.30
65046;DHT22;54657;52.022;5.534;2023-03-19T03:13:38;12.40;84.10
65046;DHT22;54657;52.022;5.534;2023-03-19T03:16:04;12.40;84.80
65046;DHT22;54657;52.022;5.534;2023-03-19T03:18:30;12.40;84.10
65046;DHT22;54657;52.022;5.534;2023-03-19T03:20:55;12.40;83.90
65046;DHT22;54657;52.022;5.534;2023-03-19T03:23:21;12.40;84.40
65046;DHT22;54657;52.022;5.534;2023-03-19T03:25:50;12.40;84.00
65046;DHT22;54657;52.022;5.534;2023-03-19T03:28:16;12.40;84.30
65046;DHT22;54657;52.022;5.534;2023-03-19T03:30:43;12.40;84.30
65046;DHT22;54657;52.022;5.534;2023-03-19T03:33:09;12.40;84.20
65046;DHT22;54657;52.022;5.534;2023-03-19T03:35:34;12.40;84.60
65046;DHT22;54657;52.022;5.534;2023-03-19T03:38:00;12.40;84.70
65046;DHT22;54657;52.022;5.534;2023-03-19T03:40:27;12.40;85.00
65046;DHT22;54657;52.022;5.534;2023-03-19T03:42:53;12.40;84.50
65046;DHT22;54657;52.022;5.534;2023-03-19T03:45:18;12.40;84.70
65046;DHT22;54657;52.022;5.534;2023-03-19T03:47:44;12.40;84.60
65046;DHT22;54657;52.022;5.534;2023-03-19T03:50:10;12.40;84.60
65046;DHT22;54657;52.022;5.534;2023-03-19T03:52:36;12.40;84.30
65046;DHT22;54657;52.022;5.534;2023-03-19T03:55:02;12.40;84.00
65046;DHT22;54657;52.022;5.534;2023-03-19T03:57:28;12.50;83.90
65046;DHT22;54657;52.022;5.534;2023-03-19T03:59:54;12.50;83.70
65046;DHT22;54657;52.022;5.534;2023-03-19T04:02:19;12.50;83.60
65046;DHT22;54657;52.022;5.534;2023-03-19T04:04:45;12.50;83.40
65046;DHT22;54657;52.022;5.534;2023-03-19T04:07:11;12.50;83.70
65046;DHT22;54657;52.022;5.534;2023-03-19T04:09:37;12.50;84.00
65046;DHT22;54657;52.022;5.534;2023-03-19T04:12:03;12.40;83.80
65046;DHT22;54657;52.022;5.534;2023-03-19T04:14:29;12.50;83.70
65046;DHT22;54657;52.022;5.534;2023-03-19T04:16:55;12.50;84.00
65046;DHT22;54657;52.022;5.534;2023-03-19T04:19:20;12.40;84.30
65046;DHT22;54657;52.022;5.534;2023-03-19T04:21:46;12.40;84.80
65046;DHT22;54657;52.022;5.534;2023-03-19T04:24:12;12.30;84.80
65046;DHT22;54657;52.022;5.534;2023-03-19T04:26:37;12.30;85.00
65046;DHT22;54657;52.022;5.534;2023-03-19T04:29:03;12.20;85.20
65046;DHT22;54657;52.022;5.534;2023-03-19T04:31:29;12.20;84.70
65046;DHT22;54657;52.022;5.534;2023-03-19T04:33:55;12.20;84.80
65046;DHT22;54657;52.022;5.534;2023-03-19T04:36:20;12.20;84.60
65046;DHT22;54657;52.022;5.534;2023-03-19T04:38:46;12.20;84.30
65046;DHT22;54657;52.022;5.534;2023-03-19T04:41:12;12.10;84.40
65046;DHT22;54657;52.022;5.534;2023-03-19T04:43:40;12.00;84.60
65046;DHT22;54657;52.022;5.534;2023-03-19T04:46:05;12.00;84.60
65046;DHT22;54657;52.022;5.534;2023-03-19T04:48:32;12.00;84.70
65046;DHT22;54657;52.022;5.534;2023-03-19T04:51:00;12.00;84.30
65046;DHT22;54657;52.022;5.534;2023-03-19T04:53:27;11.90;84.50
65046;DHT22;54657;52.022;5.534;2023-03-19T04:55:53;11.90;84.30
65046;DHT22;54657;52.022;5.534;2023-03-19T04:58:18;12.00;84.20
65046;DHT22;54657;52.022;5.534;2023-03-19T05:00:44;12.00;83.90
65046;DHT22;54657;52.022;5.534;2023-03-19T05:03:12;12.00;83.70
65046;DHT22;54657;52.022;5.534;2023-03-19T05:05:38;12.00;83.90
65046;DHT22;54657;52.022;5.534;2023-03-19T05:08:03;12.00;83.90
65046;DHT22;54657;52.022;5.534;2023-03-19T05:10:29;11.90;84.00
65046;DHT22;54657;52.022;5.534;2023-03-19T05:12:55;11.90;83.90
65046;DHT22;54657;52.022;5.534;2023-03-19T05:15:20;12.00;83.60
65046;DHT22;54657;52.022;5.534;2023-03-19T05:17:46;11.90;83.70
65046;DHT22;54657;52.022;5.534;2023-03-19T05:20:13;12.00;83.80
65046;DHT22;54657;52.022;5.534;2023-03-19T05:22:38;12.00;83.60
65046;DHT22;54657;52.022;5.534;2023-03-19T05:25:04;12.00;83.70
65046;DHT22;54657;52.022;5.534;2023-03-19T05:27:31;12.00;83.50
65046;DHT22;54657;52.022;5.534;2023-03-19T05:29:56;11.90;84.20
65046;DHT22;54657;52.022;5.534;2023-03-19T05:32:22;11.90;83.90
65046;DHT22;54657;52.022;5.534;2023-03-19T05:34:47;11.90;83.90
65046;DHT22;54657;52.022;5.534;2023-03-19T05:37:13;11.90;83.90
65046;DHT22;54657;52.022;5.534;2023-03-19T05:39:39;11.80;83.80
65046;DHT22;54657;52.022;5.534;2023-03-19T05:42:04;11.90;83.70
65046;DHT22;54657;52.022;5.534;2023-03-19T05:44:30;11.80;83.70
65046;DHT22;54657;52.022;5.534;2023-03-19T05:46:56;11.70;84.10
65046;DHT22;54657;52.022;5.534;2023-03-19T05:49:22;11.70;84.10
65046;DHT22;54657;52.022;5.534;2023-03-19T05:51:47;11.80;84.60
65046;DHT22;54657;52.022;5.534;2023-03-19T05:54:13;11.70;84.50
65046;DHT22;54657;52.022;5.534;2023-03-19T05:56:38;11.70;84.40
65046;DHT22;54657;52.022;5.534;2023-03-19T05:59:04;11.70;84.60
65046;DHT22;54657;52.022;5.534;2023-03-19T06:01:30;11.70;85.10
65046;DHT22;54657;52.022;5.534;2023-03-19T06:03:56;11.60;85.50
65046;DHT22;54657;52.022;5.534;2023-03-19T06:06:21;11.60;85.20
65046;DHT22;54657;52.022;5.534;2023-03-19T06:08:47;11.60;85.20
65046;DHT22;54657;52.022;5.534;2023-03-19T06:11:13;11.60;85.40
65046;DHT22;54657;52.022;5.534;2023-03-19T06:13:38;11.60;85.70
65046;DHT22;54657;52.022;5.534;2023-03-19T06:16:05;11.60;85.80
65046;DHT22;54657;52.022;5.534;2023-03-19T06:18:30;11.50;86.00
65046;DHT22;54657;52.022;5.534;2023-03-19T06:20:56;11.50;85.60
65046;DHT22;54657;52.022;5.534;2023-03-19T06:23:22;11.50;85.60
65046;DHT22;54657;52.022;5.534;2023-03-19T06:25:47;11.60;85.40
65046;DHT22;54657;52.022;5.534;2023-03-19T06:28:13;11.60;85.90
65046;DHT22;54657;52.022;5.534;2023-03-19T06:30:39;11.60;85.60
65046;DHT22;54657;52.022;5.534;2023-03-19T06:33:05;11.60;85.60
65046;DHT22;54657;52.022;5.534;2023-03-19T06:35:31;11.70;85.30
65046;DHT22;54657;52.022;5.534;2023-03-19T06:37:56;11.70;85.30
65046;DHT22;54657;52.022;5.534;2023-03-19T06:40:22;11.80;85.70
65046;DHT22;54657;52.022;5.534;2023-03-19T06:42:48;11.70;85.10
65046;DHT22;54657;52.022;5.534;2023-03-19T06:45:14;11.70;85.70
65046;DHT22;54657;52.022;5.534;2023-03-19T06:47:44;11.70;85.50
65046;DHT22;54657;52.022;5.534;2023-03-19T06:50:11;11.60;85.90
65046;DHT22;54657;52.022;5.534;2023-03-19T06:52:37;11.60;85.80
65046;DHT22;54657;52.022;5.534;2023-03-19T06:55:04;11.60;85.70
65046;DHT22;54657;52.022;5.534;2023-03-19T06:57:29;11.70;85.80
65046;DHT22;54657;52.022;5.534;2023-03-19T06:59:55;11.80;85.90
65046;DHT22;54657;52.022;5.534;2023-03-19T07:02:21;11.80;85.60
65046;DHT22;54657;52.022;5.534;2023-03-19T07:04:47;11.80;85.60
65046;DHT22;54657;52.022;5.534;2023-03-19T07:07:13;11.80;86.20
65046;DHT22;54657;52.022;5.534;2023-03-19T07:09:38;11.80;87.30
65046;DHT22;54657;52.022;5.534;2023-03-19T07:12:04;11.70;86.70
65046;DHT22;54657;52.022;5.534;2023-03-19T07:14:29;11.70;86.80
65046;DHT22;54657;52.022;5.534;2023-03-19T07:16:55;11.70;87.00
65046;DHT22;54657;52.022;5.534;2023-03-19T07:19:21;11.80;87.00
65046;DHT22;54657;52.022;5.534;2023-03-19T07:21:47;11.80;86.90
65046;DHT22;54657;52.022;5.534;2023-03-19T07:24:13;11.90;86.50
65046;DHT22;54657;52.022;5.534;2023-03-19T07:26:38;11.80;87.40
65046;DHT22;54657;52.022;5.534;2023-03-19T07:29:04;11.80;86.90
65046;DHT22;54657;52.022;5.534;2023-03-19T07:31:29;11.80;87.40
65046;DHT22;54657;52.022;5.534;2023-03-19T07:33:55;11.70;87.30
65046;DHT22;54657;52.022;5.534;2023-03-19T07:36:21;11.70;86.80
65046;DHT22;54657;52.022;5.534;2023-03-19T07:38:47;11.70;87.00
65046;DHT22;54657;52.022;5.534;2023-03-19T07:41:13;11.80;86.80
65046;DHT22;54657;52.022;5.534;2023-03-19T07:43:38;11.80;87.10
65046;DHT22;54657;52.022;5.534;2023-03-19T07:46:04;11.90;86.70
65046;DHT22;54657;52.022;5.534;2023-03-19T07:48:30;11.90;86.30
65046;DHT22;54657;52.022;5.534;2023-03-19T07:50:56;11.90;86.70
65046;DHT22;54657;52.022;5.534;2023-03-19T07:53:21;11.90;86.60
65046;DHT22;54657;52.022;5.534;2023-03-19T07:55:47;11.90;86.60
65046;DHT22;54657;52.022;5.534;2023-03-19T07:58:13;11.90;86.30
65046;DHT22;54657;52.022;5.534;2023-03-19T08:00:39;11.90;86.50
65046;DHT22;54657;52.022;5.534;2023-03-19T08:03:05;11.90;86.70
65046;DHT22;54657;52.022;5.534;2023-03-19T08:05:30;11.90;86.50
65046;DHT22;54657;52.022;5.534;2023-03-19T08:07:56;12.00;86.50
65046;DHT22;54657;52.022;5.534;2023-03-19T08:10:21;12.00;86.40
65046;DHT22;54657;52.022;5.534;2023-03-19T08:12:47;12.00;86.40
65046;DHT22;54657;52.022;5.534;2023-03-19T08:15:13;12.00;86.20
65046;DHT22;54657;52.022;5.534;2023-03-19T08:17:39;12.00;86.20
65046;DHT22;54657;52.022;5.534;2023-03-19T08:20:06;12.00;86.20
65046;DHT22;54657;52.022;5.534;2023-03-19T08:22:34;12.00;86.10
65046;DHT22;54657;52.022;5.534;2023-03-19T08:25:32;12.00;86.30
65046;DHT22;54657;52.022;5.534;2023-03-19T08:27:59;12.10;87.10
65046;DHT22;54657;52.022;5.534;2023-03-19T08:30:28;12.00;86.30
65046;DHT22;54657;52.022;5.534;2023-03-19T08:32:53;12.10;86.70
65046;DHT22;54657;52.022;5.534;2023-03-19T08:35:19;12.10;86.00
65046;DHT22;54657;52.022;5.534;2023-03-19T08:37:48;12.10;86.10
65046;DHT22;54657;52.022;5.534;2023-03-19T08:40:24;12.20;85.90
65046;DHT22;54657;52.022;5.534;2023-03-19T08:42:53;12.10;86.20
65046;DHT22;54657;52.022;5.534;2023-03-19T08:45:20;12.20;86.50
65046;DHT22;54657;52.022;5.534;2023-03-19T08:47:48;12.20;86.00
65046;DHT22;54657;52.022;5.534;2023-03-19T08:50:14;12.10;86.00
65046;DHT22;54657;52.022;5.534;2023-03-19T08:52:40;12.20;86.00
65046;DHT22;54657;52.022;5.534;2023-03-19T08:55:06;12.30;85.60
65046;DHT22;54657;52.022;5.534;2023-03-19T08:57:35;12.30;85.60
65046;DHT22;54657;52.022;5.534;2023-03-19T09:00:04;12.30;85.70
65046;DHT22;54657;52.022;5.534;2023-03-19T09:02:30;12.40;85.50
65046;DHT22;54657;52.022;5.534;2023-03-19T09:04:56;12.50;85.30
65046;DHT22;54657;52.022;5.534;2023-03-19T09:07:24;12.60;85.00
65046;DHT22;54657;52.022;5.534;2023-03-19T09:09:53;12.70;85.10
65046;DHT22;54657;52.022;5.534;2023-03-19T09:12:19;12.60;85.10
65046;DHT22;54657;52.022;5.534;2023-03-19T09:14:45;12.60;84.60
65046;DHT22;54657;52.022;5.534;2023-03-19T09:17:13;12.70;85.00
65046;DHT22;54657;52.022;5.534;2023-03-19T09:20:31;12.70;85.00
65046;DHT22;54657;52.022;5.534;2023-03-19T09:23:01;12.70;85.20
65046;DHT22;54657;52.022;5.534;2023-03-19T09:25:32;12.70;84.90
65046;DHT22;54657;52.022;5.534;2023-03-19T09:27:58;12.80;84.80
65046;DHT22;54657;52.022;5.534;2023-03-19T09:30:24;12.90;84.50
65046;DHT22;54657;52.022;5.534;2023-03-19T09:32:49;13.00;84.30
65046;DHT22;54657;52.022;5.534;2023-03-19T09:35:21;13.00;84.00
65046;DHT22;54657;52.022;5.534;2023-03-19T09:38:15;13.00;83.70
65046;DHT22;54657;52.022;5.534;2023-03-19T09:40:44;13.10;84.30
65046;DHT22;54657;52.022;5.534;2023-03-19T09:46:13;12.80;84.50
65046;DHT22;54657;52.022;5.534;2023-03-19T09:49:53;12.80;84.90
65046;DHT22;54657;52.022;5.534;2023-03-19T09:51:55;12.80;85.00
65046;DHT22;54657;52.022;5.534;2023-03-19T09:54:26;12.70;85.00
65046;DHT22;54657;52.022;5.534;2023-03-19T09:56:53;12.70;85.10
65046;DHT22;54657;52.022;5.534;2023-03-19T09:59:22;12.70;85.00
65046;DHT22;54657;52.022;5.534;2023-03-19T10:05:56;12.80;85.00
65046;DHT22;54657;52.022;5.534;2023-03-19T10:08:36;12.90;84.90
65046;DHT22;54657;52.022;5.534;2023-03-19T10:11:34;12.90;85.60
65046;DHT22;54657;52.022;5.534;2023-03-19T10:16:30;12.90;84.70
65046;DHT22;54657;52.022;5.534;2023-03-19T10:18:58;12.90;84.60
65046;DHT22;54657;52.022;5.534;2023-03-19T10:21:41;13.00;84.60
65046;DHT22;54657;52.022;5.534;2023-03-19T10:27:00;13.10;84.70
65046;DHT22;54657;52.022;5.534;2023-03-19T10:29:27;13.10;84.50
65046;DHT22;54657;52.022;5.534;2023-03-19T10:34:47;13.20;84.20
65046;DHT22;54657;52.022;5.534;2023-03-19T10:37:23;13.20;84.10
65046;DHT22;54657;52.022;5.534;2023-03-19T10:39:51;13.20;84.30
65046;DHT22;54657;52.022;5.534;2023-03-19T10:44:58;13.20;84.70
65046;DHT22;54657;52.022;5.534;2023-03-19T10:47:27;13.30;84.40
65046;DHT22;54657;52.022;5.534;2023-03-19T10:49:55;13.30;84.20
65046;DHT22;54657;52.022;5.534;2023-03-19T10:52:41;13.40;84.20
65046;DHT22;54657;52.022;5.534;2023-03-19T10:55:16;13.40;84.50
65046;DHT22;54657;52.022;5.534;2023-03-19T10:57:45;13.30;84.20
65046;DHT22;54657;52.022;5.534;2023-03-19T11:00:24;13.30;84.20
65046;DHT22;54657;52.022;5.534;2023-03-19T11:02:56;13.30;84.40
65046;DHT22;54657;52.022;5.534;2023-03-19T11:05:28;13.30;84.80
65046;DHT22;54657;52.022;5.534;2023-03-19T11:07:55;13.20;84.50
65046;DHT22;54657;52.022;5.534;2023-03-19T11:10:27;13.20;85.70
65046;DHT22;54657;52.022;5.534;2023-03-19T11:13:03;13.20;84.80
65046;DHT22;54657;52.022;5.534;2023-03-19T11:15:46;13.10;85.40
65046;DHT22;54657;52.022;5.534;2023-03-19T11:18:28;13.10;85.40
65046;DHT22;54657;52.022;5.534;2023-03-19T11:21:05;13.00;85.00
65046;DHT22;54657;52.022;5.534;2023-03-19T11:23:41;13.00;84.90
65046;DHT22;54657;52.022;5.534;2023-03-19T11:26:36;13.00;84.90
65046;DHT22;54657;52.022;5.534;2023-03-19T11:29:38;13.00;85.80
65046;DHT22;54657;52.022;5.534;2023-03-19T11:47:57;12.80;84.70
65046;DHT22;54657;52.022;5.534;2023-03-19T11:50:35;12.80;85.00
65046;DHT22;54657;52.022;5.534;2023-03-19T11:53:27;12.80;85.00
65046;DHT22;54657;52.022;5.534;2023-03-19T12:17:21;13.20;84.30
65046;DHT22;54657;52.022;5.534;2023-03-19T12:25:57;13.40;83.30
65046;DHT22;54657;52.022;5.534;2023-03-19T12:31:38;13.60;83.00
65046;DHT22;54657;52.022;5.534;2023-03-19T12:34:18;13.60;83.10
65046;DHT22;54657;52.022;5.534;2023-03-19T12:36:53;13.70;82.80
65046;DHT22;54657;52.022;5.534;2023-03-19T12:39:28;13.80;82.20
65046;DHT22;54657;52.022;5.534;2023-03-19T12:41:57;13.90;82.30
65046;DHT22;54657;52.022;5.534;2023-03-19T12:44:39;14.00;82.00
65046;DHT22;54657;52.022;5.534;2023-03-19T12:47:16;14.10;81.40
65046;DHT22;54657;52.022;5.534;2023-03-19T12:49:52;14.20;81.40
65046;DHT22;54657;52.022;5.534;2023-03-19T13:00:31;14.40;80.40
65046;DHT22;54657;52.022;5.534;2023-03-19T13:08:57;14.70;80.30
65046;DHT22;54657;52.022;5.534;2023-03-19T13:12:03;14.80;80.00
65046;DHT22;54657;52.022;5.534;2023-03-19T13:14:44;14.90;80.00
65046;DHT22;54657;52.022;5.534;2023-03-19T13:19:51;15.00;80.10
65046;DHT22;54657;52.022;5.534;2023-03-19T13:22:25;15.00;79.00
65046;DHT22;54657;52.022;5.534;2023-03-19T13:24:53;14.90;79.30
65046;DHT22;54657;52.022;5.534;2023-03-19T13:27:22;14.90;79.50
65046;DHT22;54657;52.022;5.534;2023-03-19T13:33:12;14.90;78.50
65046;DHT22;54657;52.022;5.534;2023-03-19T13:35:26;14.70;79.60
65046;DHT22;54657;52.022;5.534;2023-03-19T13:38:20;14.50;79.80
65046;DHT22;54657;52.022;5.534;2023-03-19T13:40:52;14.50;80.20
65046;DHT22;54657;52.022;5.534;2023-03-19T13:46:40;14.70;80.00
65046;DHT22;54657;52.022;5.534;2023-03-19T13:52:00;14.80;78.60
65046;DHT22;54657;52.022;5.534;2023-03-19T13:54:40;14.70;80.10
65046;DHT22;54657;52.022;5.534;2023-03-19T13:59:44;14.90;78.90
65046;DHT22;54657;52.022;5.534;2023-03-19T14:05:03;14.80;78.60
65046;DHT22;54657;52.022;5.534;2023-03-19T14:07:36;14.80;77.80
65046;DHT22;54657;52.022;5.534;2023-03-19T14:12:46;14.70;78.90
65046;DHT22;54657;52.022;5.534;2023-03-19T14:15:21;14.80;79.50
65046;DHT22;54657;52.022;5.534;2023-03-19T14:20:20;15.10;78.60
65046;DHT22;54657;52.022;5.534;2023-03-19T14:26:04;15.20;76.60
65046;DHT22;54657;52.022;5.534;2023-03-19T14:29:05;14.90;76.10
65046;DHT22;54657;52.022;5.534;2023-03-19T14:31:49;14.70;78.10
65046;DHT22;54657;52.022;5.534;2023-03-19T14:34:26;14.70;77.60
65046;DHT22;54657;52.022;5.534;2023-03-19T14:37:03;14.70;78.90
65046;DHT22;54657;52.022;5.534;2023-03-19T14:39:40;14.70;78.20
65046;DHT22;54657;52.022;5.534;2023-03-19T14:42:20;14.90;78.40
65046;DHT22;54657;52.022;5.534;2023-03-19T14:50:26;14.90;78.20
65046;DHT22;54657;52.022;5.534;2023-03-19T14:53:17;14.90;76.40
65046;DHT22;54657;52.022;5.534;2023-03-19T14:55:49;14.90;76.50
65046;DHT22;54657;52.022;5.534;2023-03-19T14:58:16;14.80;78.00
65046;DHT22;54657;52.022;5.534;2023-03-19T15:00:48;14.70;78.00
65046;DHT22;54657;52.022;5.534;2023-03-19T15:03:35;14.90;77.40
65046;DHT22;54657;52.022;5.534;2023-03-19T15:06:17;15.00;77.00
65046;DHT22;54657;52.022;5.534;2023-03-19T15:08:45;15.00;75.40
65046;DHT22;54657;52.022;5.534;2023-03-19T15:11:37;15.00;77.10
65046;DHT22;54657;52.022;5.534;2023-03-19T15:14:29;14.90;74.80
65046;DHT22;54657;52.022;5.534;2023-03-19T15:17:14;14.90;76.30
65046;DHT22;54657;52.022;5.534;2023-03-19T15:19:42;15.00;76.80
65046;DHT22;54657;52.022;5.534;2023-03-19T15:22:14;15.10;77.10
65046;DHT22;54657;52.022;5.534;2023-03-19T15:24:41;15.10;76.00
65046;DHT22;54657;52.022;5.534;2023-03-19T15:27:21;15.10;76.50
65046;DHT22;54657;52.022;5.534;2023-03-19T15:29:49;15.20;75.00
65046;DHT22;54657;52.022;5.534;2023-03-19T15:32:37;15.20;75.90
65046;DHT22;54657;52.022;5.534;2023-03-19T15:35:07;15.30;74.10
65046;DHT22;54657;52.022;5.534;2023-03-19T15:37:40;15.20;75.80
65046;DHT22;54657;52.022;5.534;2023-03-19T15:40:15;15.30;73.80
65046;DHT22;54657;52.022;5.534;2023-03-19T15:42:44;15.20;75.00
65046;DHT22;54657;52.022;5.534;2023-03-19T15:45:24;15.10;75.00
65046;DHT22;54657;52.022;5.534;2023-03-19T15:51:14;15.10;72.80
65046;DHT22;54657;52.022;5.534;2023-03-19T15:57:40;14.80;73.80
65046;DHT22;54657;52.022;5.534;2023-03-19T16:00:08;14.80;74.60
65046;DHT22;54657;52.022;5.534;2023-03-19T16:02:39;14.80;76.30
65046;DHT22;54657;52.022;5.534;2023-03-19T16:09:35;14.70;74.70
65046;DHT22;54657;52.022;5.534;2023-03-19T16:18:48;14.60;75.10
65046;DHT22;54657;52.022;5.534;2023-03-19T16:21:44;14.60;76.30
65046;DHT22;54657;52.022;5.534;2023-03-19T16:24:35;14.50;76.20
65046;DHT22;54657;52.022;5.534;2023-03-19T16:27:08;14.50;75.80
65046;DHT22;54657;52.022;5.534;2023-03-19T16:29:54;14.40;76.50
65046;DHT22;54657;52.022;5.534;2023-03-19T16:32:25;14.40;76.30
65046;DHT22;54657;52.022;5.534;2023-03-19T16:35:02;14.40;76.80
65046;DHT22;54657;52.022;5.534;2023-03-19T16:37:39;14.30;76.90
65046;DHT22;54657;52.022;5.534;2023-03-19T16:42:55;14.30;76.90
65046;DHT22;54657;52.022;5.534;2023-03-19T16:45:38;14.30;76.70
65046;DHT22;54657;52.022;5.534;2023-03-19T16:48:12;14.30;76.90
65046;DHT22;54657;52.022;5.534;2023-03-19T16:50:43;14.30;76.80
65046;DHT22;54657;52.022;5.534;2023-03-19T16:53:28;14.20;77.10
65046;DHT22;54657;52.022;5.534;2023-03-19T16:56:22;14.30;76.20
65046;DHT22;54657;52.022;5.534;2023-03-19T16:58:52;14.30;76.70
65046;DHT22;54657;52.022;5.534;2023-03-19T17:01:53;14.30;76.70
65046;DHT22;54657;52.022;5.534;2023-03-19T17:09:30;14.20;76.90
65046;DHT22;54657;52.022;5.534;2023-03-19T17:11:55;14.10;77.10
65046;DHT22;54657;52.022;5.534;2023-03-19T17:17:16;14.10;77.20
65046;DHT22;54657;52.022;5.534;2023-03-19T17:27:16;13.90;77.40
65046;DHT22;54657;52.022;5.534;2023-03-19T17:34:04;13.90;77.50
65046;DHT22;54657;52.022;5.534;2023-03-19T17:36:31;13.80;78.00
65046;DHT22;54657;52.022;5.534;2023-03-19T17:39:19;13.60;78.60
65046;DHT22;54657;52.022;5.534;2023-03-19T17:42:37;13.60;78.70
65046;DHT22;54657;52.022;5.534;2023-03-19T17:47:40;13.20;79.80
65046;DHT22;54657;52.022;5.534;2023-03-19T17:53:15;12.90;80.20
65046;DHT22;54657;52.022;5.534;2023-03-19T17:55:44;12.80;80.80
65046;DHT22;54657;52.022;5.534;2023-03-19T18:01:51;12.70;81.20
65046;DHT22;54657;52.022;5.534;2023-03-19T18:04:18;12.60;81.30
65046;DHT22;54657;52.022;5.534;2023-03-19T18:07:12;12.60;81.10
65046;DHT22;54657;52.022;5.534;2023-03-19T18:13:58;12.60;81.20
65046;DHT22;54657;52.022;5.534;2023-03-19T18:16:44;12.60;81.10
65046;DHT22;54657;52.022;5.534;2023-03-19T18:19:38;12.50;81.00
65046;DHT22;54657;52.022;5.534;2023-03-19T18:22:30;12.40;81.20
65046;DHT22;54657;52.022;5.534;2023-03-19T18:28:38;12.20;81.90
65046;DHT22;54657;52.022;5.534;2023-03-19T18:34:07;12.30;81.60
65046;DHT22;54657;52.022;5.534;2023-03-19T18:36:45;12.30;81.40
65046;DHT22;54657;52.022;5.534;2023-03-19T18:39:24;12.30;81.50
65046;DHT22;54657;52.022;5.534;2023-03-19T18:45:00;12.20;81.90
65046;DHT22;54657;52.022;5.534;2023-03-19T18:47:31;12.10;81.80
65046;DHT22;54657;52.022;5.534;2023-03-19T18:49:57;12.10;81.80